Northumberland, New Hampshire
Current Conditions -  °F | °C
As of 2:52 PM on Sunday 23 Nov 2014 (Local Time) from KHIE Reporting Station
Overcast Overcast  
Wind Chill: 48°   Ceiling: 4900
Heat Index: 48°   Visibility: 10mi
Dew Point: 39°   Wind: 0mph
Humidity: 71%   Direction: NA
Pressure: 30.06"   Gusts: NA
Location:  44.3946°N, 71.4295°W
Report Text: KHIE 231952Z AUTO 00000KT 10SM OVC049 09/04 A3006 RMK AO2 SLP187 T00890039
Loading
Personal Weather Stations






























Interactive Weather Map New forecast layout! Learn more

10-Day Weather Forecast

Advertisements
Track Severe Weather on mobile